sensor_id;sensor_type;location;lat;lon;timestamp;P1;durP1;ratioP1;P2;durP2;ratioP2
10637;SDS011;47007;49.252;8.904;2024-03-02T00:00:31;16.17;;;13.55;;
10637;SDS011;47007;49.252;8.904;2024-03-02T00:01:13;17.13;;;14.32;;
10637;SDS011;47007;49.252;8.904;2024-03-02T00:01:55;16.27;;;14.20;;
10637;SDS011;47007;49.252;8.904;2024-03-02T00:02:40;15.05;;;13.50;;
10637;SDS011;47007;49.252;8.904;2024-03-02T00:03:26;15.30;;;12.73;;
10637;SDS011;47007;49.252;8.904;2024-03-02T00:04:08;17.90;;;13.18;;
10637;SDS011;47007;49.252;8.904;2024-03-02T00:04:50;16.02;;;13.07;;
10637;SDS011;47007;49.252;8.904;2024-03-02T00:05:32;15.73;;;13.20;;
10637;SDS011;47007;49.252;8.904;2024-03-02T00:06:13;15.45;;;13.50;;
10637;SDS011;47007;49.252;8.904;2024-03-02T00:06:56;15.55;;;12.88;;
10637;SDS011;47007;49.252;8.904;2024-03-02T00:07:41;16.52;;;13.25;;
10637;SDS011;47007;49.252;8.904;2024-03-02T00:08:24;14.77;;;12.77;;
10637;SDS011;47007;49.252;8.904;2024-03-02T00:09:10;14.88;;;13.00;;
10637;SDS011;47007;49.252;8.904;2024-03-02T00:09:55;14.40;;;11.98;;
10637;SDS011;47007;49.252;8.904;2024-03-02T00:10:38;13.52;;;11.85;;
10637;SDS011;47007;49.252;8.904;2024-03-02T00:11:23;16.15;;;13.73;;
10637;SDS011;47007;49.252;8.904;2024-03-02T00:12:05;15.27;;;13.75;;
10637;SDS011;47007;49.252;8.904;2024-03-02T00:12:47;15.45;;;13.48;;
10637;SDS011;47007;49.252;8.904;2024-03-02T00:13:30;18.67;;;13.95;;
10637;SDS011;47007;49.252;8.904;2024-03-02T00:14:13;18.70;;;14.63;;
10637;SDS011;47007;49.252;8.904;2024-03-02T00:14:55;15.18;;;13.63;;
10637;SDS011;47007;49.252;8.904;2024-03-02T00:15:48;16.83;;;14.32;;
10637;SDS011;47007;49.252;8.904;2024-03-02T00:16:33;16.08;;;13.68;;
10637;SDS011;47007;49.252;8.904;2024-03-02T00:17:21;16.75;;;13.38;;
10637;SDS011;47007;49.252;8.904;2024-03-02T00:18:10;15.82;;;13.57;;
10637;SDS011;47007;49.252;8.904;2024-03-02T00:18:54;16.08;;;13.73;;
10637;SDS011;47007;49.252;8.904;2024-03-02T00:19:38;15.30;;;13.70;;
10637;SDS011;47007;49.252;8.904;2024-03-02T00:20:22;14.65;;;12.98;;
10637;SDS011;47007;49.252;8.904;2024-03-02T00:21:05;15.07;;;12.95;;
10637;SDS011;47007;49.252;8.904;2024-03-02T00:21:51;14.43;;;12.93;;
10637;SDS011;47007;49.252;8.904;2024-03-02T00:22:34;15.40;;;13.25;;
10637;SDS011;47007;49.252;8.904;2024-03-02T00:23:18;17.58;;;13.73;;
10637;SDS011;47007;49.252;8.904;2024-03-02T00:24:01;16.95;;;14.80;;
10637;SDS011;47007;49.252;8.904;2024-03-02T00:25:16;14.70;;;12.63;;
10637;SDS011;47007;49.252;8.904;2024-03-02T00:25:58;16.80;;;13.25;;
10637;SDS011;47007;49.252;8.904;2024-03-02T00:26:44;15.27;;;13.65;;
10637;SDS011;47007;49.252;8.904;2024-03-02T00:27:27;16.65;;;13.93;;
10637;SDS011;47007;49.252;8.904;2024-03-02T00:28:16;15.18;;;13.38;;
10637;SDS011;47007;49.252;8.904;2024-03-02T00:29:00;15.52;;;13.88;;
10637;SDS011;47007;49.252;8.904;2024-03-02T00:29:42;16.08;;;13.98;;
10637;SDS011;47007;49.252;8.904;2024-03-02T00:31:30;16.52;;;14.82;;
10637;SDS011;47007;49.252;8.904;2024-03-02T00:32:13;16.48;;;14.15;;
10637;SDS011;47007;49.252;8.904;2024-03-02T00:32:58;17.45;;;14.15;;
10637;SDS011;47007;49.252;8.904;2024-03-02T00:33:41;14.82;;;12.73;;
10637;SDS011;47007;49.252;8.904;2024-03-02T00:34:25;15.55;;;13.85;;
10637;SDS011;47007;49.252;8.904;2024-03-02T00:35:07;16.30;;;13.48;;
10637;SDS011;47007;49.252;8.904;2024-03-02T00:35:49;15.25;;;13.25;;
10637;SDS011;47007;49.252;8.904;2024-03-02T00:36:32;15.40;;;13.68;;
10637;SDS011;47007;49.252;8.904;2024-03-02T00:37:13;14.82;;;13.05;;
10637;SDS011;47007;49.252;8.904;2024-03-02T00:37:55;16.52;;;12.95;;
10637;SDS011;47007;49.252;8.904;2024-03-02T00:38:47;16.48;;;14.25;;
10637;SDS011;47007;49.252;8.904;2024-03-02T00:39:30;14.32;;;12.57;;
10637;SDS011;47007;49.252;8.904;2024-03-02T00:40:13;14.55;;;12.93;;
10637;SDS011;47007;49.252;8.904;2024-03-02T00:40:58;15.02;;;13.43;;
10637;SDS011;47007;49.252;8.904;2024-03-02T00:41:41;14.38;;;12.68;;
10637;SDS011;47007;49.252;8.904;2024-03-02T00:42:26;14.60;;;12.57;;
10637;SDS011;47007;49.252;8.904;2024-03-02T00:44:28;13.40;;;11.48;;
10637;SDS011;47007;49.252;8.904;2024-03-02T00:45:17;13.48;;;12.07;;
10637;SDS011;47007;49.252;8.904;2024-03-02T00:45:59;13.70;;;12.20;;
10637;SDS011;47007;49.252;8.904;2024-03-02T00:46:41;16.35;;;13.68;;
10637;SDS011;47007;49.252;8.904;2024-03-02T00:47:25;16.15;;;13.43;;
10637;SDS011;47007;49.252;8.904;2024-03-02T00:48:06;14.45;;;12.95;;
10637;SDS011;47007;49.252;8.904;2024-03-02T00:48:53;15.77;;;13.60;;
10637;SDS011;47007;49.252;8.904;2024-03-02T00:49:37;16.02;;;12.50;;
10637;SDS011;47007;49.252;8.904;2024-03-02T00:50:22;14.68;;;13.18;;
10637;SDS011;47007;49.252;8.904;2024-03-02T00:51:11;15.07;;;13.35;;
10637;SDS011;47007;49.252;8.904;2024-03-02T00:51:53;14.95;;;13.45;;
10637;SDS011;47007;49.252;8.904;2024-03-02T00:52:36;13.50;;;11.90;;
10637;SDS011;47007;49.252;8.904;2024-03-02T00:53:18;14.52;;;13.02;;
10637;SDS011;47007;49.252;8.904;2024-03-02T00:54:05;12.93;;;11.55;;
10637;SDS011;47007;49.252;8.904;2024-03-02T00:54:55;14.10;;;12.23;;
10637;SDS011;47007;49.252;8.904;2024-03-02T00:55:38;14.57;;;12.85;;
10637;SDS011;47007;49.252;8.904;2024-03-02T00:56:25;15.23;;;12.75;;
10637;SDS011;47007;49.252;8.904;2024-03-02T00:57:09;14.68;;;12.65;;
10637;SDS011;47007;49.252;8.904;2024-03-02T00:57:53;17.00;;;12.43;;
10637;SDS011;47007;49.252;8.904;2024-03-02T00:58:35;13.95;;;12.55;;
10637;SDS011;47007;49.252;8.904;2024-03-02T00:59:17;13.20;;;11.82;;
10637;SDS011;47007;49.252;8.904;2024-03-02T00:59:59;13.95;;;12.18;;
10637;SDS011;47007;49.252;8.904;2024-03-02T01:00:41;14.48;;;11.98;;
10637;SDS011;47007;49.252;8.904;2024-03-02T01:01:23;13.20;;;11.57;;
10637;SDS011;47007;49.252;8.904;2024-03-02T01:02:05;13.98;;;12.40;;
10637;SDS011;47007;49.252;8.904;2024-03-02T01:02:47;13.88;;;12.48;;
10637;SDS011;47007;49.252;8.904;2024-03-02T01:03:29;13.90;;;12.05;;
10637;SDS011;47007;49.252;8.904;2024-03-02T01:04:13;13.48;;;12.07;;
10637;SDS011;47007;49.252;8.904;2024-03-02T01:04:55;13.75;;;12.13;;
10637;SDS011;47007;49.252;8.904;2024-03-02T01:05:40;15.63;;;12.70;;
10637;SDS011;47007;49.252;8.904;2024-03-02T01:06:25;14.13;;;12.70;;
10637;SDS011;47007;49.252;8.904;2024-03-02T01:07:06;15.70;;;12.55;;
10637;SDS011;47007;49.252;8.904;2024-03-02T01:07:48;14.65;;;12.65;;
10637;SDS011;47007;49.252;8.904;2024-03-02T01:08:30;15.23;;;13.07;;
10637;SDS011;47007;49.252;8.904;2024-03-02T01:09:12;16.00;;;14.15;;
10637;SDS011;47007;49.252;8.904;2024-03-02T01:09:54;14.60;;;12.90;;
10637;SDS011;47007;49.252;8.904;2024-03-02T01:10:36;15.77;;;13.40;;
10637;SDS011;47007;49.252;8.904;2024-03-02T01:11:18;15.20;;;13.63;;
10637;SDS011;47007;49.252;8.904;2024-03-02T01:12:03;17.60;;;15.23;;
10637;SDS011;47007;49.252;8.904;2024-03-02T01:12:46;18.83;;;15.98;;
10637;SDS011;47007;49.252;8.904;2024-03-02T01:13:28;19.45;;;15.35;;
10637;SDS011;47007;49.252;8.904;2024-03-02T01:14:09;17.40;;;14.52;;
10637;SDS011;47007;49.252;8.904;2024-03-02T01:14:51;16.38;;;14.13;;
10637;SDS011;47007;49.252;8.904;2024-03-02T01:15:33;14.93;;;13.25;;
10637;SDS011;47007;49.252;8.904;2024-03-02T01:16:15;15.60;;;13.15;;
10637;SDS011;47007;49.252;8.904;2024-03-02T01:16:57;15.73;;;13.90;;
10637;SDS011;47007;49.252;8.904;2024-03-02T01:17:39;16.83;;;15.00;;
10637;SDS011;47007;49.252;8.904;2024-03-02T01:18:21;18.27;;;15.68;;
10637;SDS011;47007;49.252;8.904;2024-03-02T01:19:03;17.80;;;15.90;;
10637;SDS011;47007;49.252;8.904;2024-03-02T01:19:46;17.27;;;15.43;;
10637;SDS011;47007;49.252;8.904;2024-03-02T01:20:27;17.15;;;15.30;;
10637;SDS011;47007;49.252;8.904;2024-03-02T01:21:09;15.27;;;13.30;;
10637;SDS011;47007;49.252;8.904;2024-03-02T01:21:51;17.95;;;14.43;;
10637;SDS011;47007;49.252;8.904;2024-03-02T01:22:33;18.10;;;14.18;;
10637;SDS011;47007;49.252;8.904;2024-03-02T01:23:15;16.17;;;13.82;;
10637;SDS011;47007;49.252;8.904;2024-03-02T01:23:56;15.75;;;13.73;;
10637;SDS011;47007;49.252;8.904;2024-03-02T01:24:38;14.70;;;13.20;;
10637;SDS011;47007;49.252;8.904;2024-03-02T01:25:20;15.77;;;14.00;;
10637;SDS011;47007;49.252;8.904;2024-03-02T01:26:02;14.50;;;12.68;;
10637;SDS011;47007;49.252;8.904;2024-03-02T01:26:43;14.52;;;12.30;;
10637;SDS011;47007;49.252;8.904;2024-03-02T01:27:25;15.13;;;13.00;;
10637;SDS011;47007;49.252;8.904;2024-03-02T01:28:08;14.77;;;13.27;;
10637;SDS011;47007;49.252;8.904;2024-03-02T01:28:50;14.48;;;12.95;;
10637;SDS011;47007;49.252;8.904;2024-03-02T01:29:31;15.02;;;13.38;;
10637;SDS011;47007;49.252;8.904;2024-03-02T01:30:13;15.70;;;13.65;;
10637;SDS011;47007;49.252;8.904;2024-03-02T01:30:55;14.43;;;12.80;;
10637;SDS011;47007;49.252;8.904;2024-03-02T01:31:37;15.05;;;13.13;;
10637;SDS011;47007;49.252;8.904;2024-03-02T01:32:21;16.17;;;13.05;;
10637;SDS011;47007;49.252;8.904;2024-03-02T01:33:03;15.63;;;13.30;;
10637;SDS011;47007;49.252;8.904;2024-03-02T01:33:46;15.85;;;13.60;;
10637;SDS011;47007;49.252;8.904;2024-03-02T01:34:28;14.35;;;12.68;;
10637;SDS011;47007;49.252;8.904;2024-03-02T01:35:10;13.77;;;12.32;;
10637;SDS011;47007;49.252;8.904;2024-03-02T01:35:52;14.02;;;12.52;;
10637;SDS011;47007;49.252;8.904;2024-03-02T01:36:33;12.88;;;11.55;;
10637;SDS011;47007;49.252;8.904;2024-03-02T01:37:15;13.95;;;11.80;;
10637;SDS011;47007;49.252;8.904;2024-03-02T01:37:57;12.68;;;11.38;;
10637;SDS011;47007;49.252;8.904;2024-03-02T01:38:39;13.48;;;12.07;;
10637;SDS011;47007;49.252;8.904;2024-03-02T01:39:21;13.00;;;11.70;;
10637;SDS011;47007;49.252;8.904;2024-03-02T01:40:03;13.20;;;11.82;;
10637;SDS011;47007;49.252;8.904;2024-03-02T01:40:50;14.23;;;12.52;;
10637;SDS011;47007;49.252;8.904;2024-03-02T01:41:33;15.20;;;12.90;;
10637;SDS011;47007;49.252;8.904;2024-03-02T01:42:14;15.25;;;13.70;;
10637;SDS011;47007;49.252;8.904;2024-03-02T01:42:57;15.90;;;14.02;;
10637;SDS011;47007;49.252;8.904;2024-03-02T01:43:40;14.90;;;13.40;;
10637;SDS011;47007;49.252;8.904;2024-03-02T01:44:22;14.95;;;13.50;;
10637;SDS011;47007;49.252;8.904;2024-03-02T01:45:05;15.40;;;13.52;;
10637;SDS011;47007;49.252;8.904;2024-03-02T01:45:47;14.55;;;12.60;;
10637;SDS011;47007;49.252;8.904;2024-03-02T01:46:29;15.20;;;13.60;;
10637;SDS011;47007;49.252;8.904;2024-03-02T01:47:11;13.80;;;12.38;;
10637;SDS011;47007;49.252;8.904;2024-03-02T01:47:53;13.23;;;11.93;;
10637;SDS011;47007;49.252;8.904;2024-03-02T01:48:35;14.65;;;12.25;;
10637;SDS011;47007;49.252;8.904;2024-03-02T01:49:16;14.45;;;11.95;;
10637;SDS011;47007;49.252;8.904;2024-03-02T01:49:58;13.80;;;12.40;;
10637;SDS011;47007;49.252;8.904;2024-03-02T01:50:41;14.13;;;12.60;;
10637;SDS011;47007;49.252;8.904;2024-03-02T01:51:22;14.05;;;12.55;;
10637;SDS011;47007;49.252;8.904;2024-03-02T01:52:05;14.75;;;13.05;;
10637;SDS011;47007;49.252;8.904;2024-03-02T01:52:46;14.98;;;12.25;;
10637;SDS011;47007;49.252;8.904;2024-03-02T01:53:28;14.15;;;11.90;;
10637;SDS011;47007;49.252;8.904;2024-03-02T01:54:10;13.73;;;12.32;;
10637;SDS011;47007;49.252;8.904;2024-03-02T01:54:52;14.02;;;11.73;;
10637;SDS011;47007;49.252;8.904;2024-03-02T01:55:34;13.85;;;12.45;;
10637;SDS011;47007;49.252;8.904;2024-03-02T01:56:16;14.35;;;12.88;;
10637;SDS011;47007;49.252;8.904;2024-03-02T01:56:58;14.73;;;13.02;;
10637;SDS011;47007;49.252;8.904;2024-03-02T01:57:40;14.95;;;13.45;;
10637;SDS011;47007;49.252;8.904;2024-03-02T01:58:22;14.13;;;12.65;;
10637;SDS011;47007;49.252;8.904;2024-03-02T01:59:04;14.10;;;12.60;;
10637;SDS011;47007;49.252;8.904;2024-03-02T01:59:46;15.35;;;13.55;;
10637;SDS011;47007;49.252;8.904;2024-03-02T02:00:32;13.90;;;12.43;;
10637;SDS011;47007;49.252;8.904;2024-03-02T02:01:14;14.48;;;12.45;;
10637;SDS011;47007;49.252;8.904;2024-03-02T02:01:56;16.65;;;12.73;;
10637;SDS011;47007;49.252;8.904;2024-03-02T02:02:37;12.55;;;11.25;;
10637;SDS011;47007;49.252;8.904;2024-03-02T02:03:19;12.57;;;11.27;;
10637;SDS011;47007;49.252;8.904;2024-03-02T02:04:01;13.30;;;11.25;;
10637;SDS011;47007;49.252;8.904;2024-03-02T02:04:43;13.38;;;10.80;;
10637;SDS011;47007;49.252;8.904;2024-03-02T02:05:25;13.02;;;11.63;;
10637;SDS011;47007;49.252;8.904;2024-03-02T02:06:07;11.75;;;10.65;;
10637;SDS011;47007;49.252;8.904;2024-03-02T02:07:11;12.40;;;11.20;;
10637;SDS011;47007;49.252;8.904;2024-03-02T02:07:51;12.52;;;10.63;;
10637;SDS011;47007;49.252;8.904;2024-03-02T02:08:33;12.55;;;11.27;;
10637;SDS011;47007;49.252;8.904;2024-03-02T02:09:15;12.68;;;11.32;;
10637;SDS011;47007;49.252;8.904;2024-03-02T02:09:57;12.68;;;11.30;;
10637;SDS011;47007;49.252;8.904;2024-03-02T02:10:39;13.15;;;11.57;;
10637;SDS011;47007;49.252;8.904;2024-03-02T02:11:21;11.90;;;10.50;;
10637;SDS011;47007;49.252;8.904;2024-03-02T02:12:03;12.23;;;10.95;;
10637;SDS011;47007;49.252;8.904;2024-03-02T02:12:48;14.85;;;10.98;;
10637;SDS011;47007;49.252;8.904;2024-03-02T02:13:30;12.77;;;11.48;;
10637;SDS011;47007;49.252;8.904;2024-03-02T02:14:11;12.70;;;11.13;;
10637;SDS011;47007;49.252;8.904;2024-03-02T02:14:53;12.43;;;11.20;;
10637;SDS011;47007;49.252;8.904;2024-03-02T02:15:35;12.48;;;11.27;;
10637;SDS011;47007;49.252;8.904;2024-03-02T02:16:18;12.77;;;11.55;;
10637;SDS011;47007;49.252;8.904;2024-03-02T02:16:59;13.85;;;12.07;;
10637;SDS011;47007;49.252;8.904;2024-03-02T02:17:41;13.50;;;12.02;;
10637;SDS011;47007;49.252;8.904;2024-03-02T02:18:23;13.05;;;11.52;;
10637;SDS011;47007;49.252;8.904;2024-03-02T02:19:06;13.63;;;11.70;;
10637;SDS011;47007;49.252;8.904;2024-03-02T02:19:47;12.77;;;11.38;;
10637;SDS011;47007;49.252;8.904;2024-03-02T02:20:29;12.27;;;10.98;;
10637;SDS011;47007;49.252;8.904;2024-03-02T02:21:11;12.15;;;10.93;;
10637;SDS011;47007;49.252;8.904;2024-03-02T02:21:53;13.07;;;10.82;;
10637;SDS011;47007;49.252;8.904;2024-03-02T02:22:34;13.70;;;11.63;;
10637;SDS011;47007;49.252;8.904;2024-03-02T02:23:16;13.35;;;11.57;;
10637;SDS011;47007;49.252;8.904;2024-03-02T02:23:58;12.32;;;11.02;;
10637;SDS011;47007;49.252;8.904;2024-03-02T02:24:42;12.98;;;11.20;;
10637;SDS011;47007;49.252;8.904;2024-03-02T02:25:24;11.80;;;10.55;;
10637;SDS011;47007;49.252;8.904;2024-03-02T02:26:06;13.20;;;11.80;;
10637;SDS011;47007;49.252;8.904;2024-03-02T02:26:47;12.45;;;11.25;;
10637;SDS011;47007;49.252;8.904;2024-03-02T02:27:29;12.13;;;10.65;;
10637;SDS011;47007;49.252;8.904;2024-03-02T02:28:12;11.55;;;10.35;;
10637;SDS011;47007;49.252;8.904;2024-03-02T02:28:53;12.35;;;11.07;;
10637;SDS011;47007;49.252;8.904;2024-03-02T02:29:36;12.68;;;11.07;;
10637;SDS011;47007;49.252;8.904;2024-03-02T02:30:18;12.00;;;10.07;;
10637;SDS011;47007;49.252;8.904;2024-03-02T02:31:04;11.65;;;10.45;;
10637;SDS011;47007;49.252;8.904;2024-03-02T02:31:46;11.00;;;9.93;;
10637;SDS011;47007;49.252;8.904;2024-03-02T02:32:28;11.52;;;10.32;;
10637;SDS011;47007;49.252;8.904;2024-03-02T02:33:10;11.63;;;10.43;;
10637;SDS011;47007;49.252;8.904;2024-03-02T02:33:52;11.63;;;10.27;;
10637;SDS011;47007;49.252;8.904;2024-03-02T02:34:34;11.85;;;10.65;;
10637;SDS011;47007;49.252;8.904;2024-03-02T02:35:16;11.52;;;10.35;;
10637;SDS011;47007;49.252;8.904;2024-03-02T02:35:58;12.80;;;10.60;;
10637;SDS011;47007;49.252;8.904;2024-03-02T02:36:39;10.85;;;9.55;;
10637;SDS011;47007;49.252;8.904;2024-03-02T02:37:22;11.77;;;10.40;;
10637;SDS011;47007;49.252;8.904;2024-03-02T02:38:03;11.38;;;10.18;;
10637;SDS011;47007;49.252;8.904;2024-03-02T02:38:46;10.75;;;9.65;;
10637;SDS011;47007;49.252;8.904;2024-03-02T02:39:30;10.65;;;9.55;;
10637;SDS011;47007;49.252;8.904;2024-03-02T02:40:12;10.68;;;9.55;;
10637;SDS011;47007;49.252;8.904;2024-03-02T02:40:54;11.05;;;9.95;;
10637;SDS011;47007;49.252;8.904;2024-03-02T02:41:36;11.57;;;9.55;;
10637;SDS011;47007;49.252;8.904;2024-03-02T02:42:18;11.18;;;9.65;;
10637;SDS011;47007;49.252;8.904;2024-03-02T02:43:00;11.18;;;10.05;;
10637;SDS011;47007;49.252;8.904;2024-03-02T02:43:41;12.55;;;10.48;;
10637;SDS011;47007;49.252;8.904;2024-03-02T02:44:23;11.45;;;10.00;;
10637;SDS011;47007;49.252;8.904;2024-03-02T02:45:06;12.88;;;10.90;;
10637;SDS011;47007;49.252;8.904;2024-03-02T02:45:48;10.63;;;9.57;;
10637;SDS011;47007;49.252;8.904;2024-03-02T02:46:30;11.93;;;10.75;;
10637;SDS011;47007;49.252;8.904;2024-03-02T02:47:12;13.30;;;10.85;;
10637;SDS011;47007;49.252;8.904;2024-03-02T02:47:53;11.63;;;10.13;;
10637;SDS011;47007;49.252;8.904;2024-03-02T02:48:35;11.90;;;10.60;;
10637;SDS011;47007;49.252;8.904;2024-03-02T02:49:17;11.73;;;10.63;;
10637;SDS011;47007;49.252;8.904;2024-03-02T02:49:59;13.25;;;11.20;;
10637;SDS011;47007;49.252;8.904;2024-03-02T02:50:41;12.07;;;10.73;;
10637;SDS011;47007;49.252;8.904;2024-03-02T02:51:23;11.55;;;10.35;;
10637;SDS011;47007;49.252;8.904;2024-03-02T02:52:07;12.80;;;10.68;;
10637;SDS011;47007;49.252;8.904;2024-03-02T02:52:48;11.80;;;10.63;;
10637;SDS011;47007;49.252;8.904;2024-03-02T02:53:31;12.32;;;10.70;;
10637;SDS011;47007;49.252;8.904;2024-03-02T02:54:13;12.32;;;11.02;;
10637;SDS011;47007;49.252;8.904;2024-03-02T02:54:55;12.10;;;10.90;;
10637;SDS011;47007;49.252;8.904;2024-03-02T02:55:37;13.32;;;12.02;;
10637;SDS011;47007;49.252;8.904;2024-03-02T02:56:21;11.88;;;10.68;;
10637;SDS011;47007;49.252;8.904;2024-03-02T02:57:03;11.77;;;10.57;;
10637;SDS011;47007;49.252;8.904;2024-03-02T02:57:45;11.70;;;10.20;;
10637;SDS011;47007;49.252;8.904;2024-03-02T02:58:28;10.80;;;9.70;;
10637;SDS011;47007;49.252;8.904;2024-03-02T02:59:10;10.93;;;9.75;;
10637;SDS011;47007;49.252;8.904;2024-03-02T02:59:51;10.93;;;9.80;;
10637;SDS011;47007;49.252;8.904;2024-03-02T03:00:33;11.70;;;10.50;;
10637;SDS011;47007;49.252;8.904;2024-03-02T03:01:15;11.40;;;10.30;;
10637;SDS011;47007;49.252;8.904;2024-03-02T03:02:00;11.88;;;10.50;;
10637;SDS011;47007;49.252;8.904;2024-03-02T03:02:42;11.13;;;10.02;;
10637;SDS011;47007;49.252;8.904;2024-03-02T03:03:25;11.77;;;10.43;;
10637;SDS011;47007;49.252;8.904;2024-03-02T03:04:07;12.95;;;11.32;;
10637;SDS011;47007;49.252;8.904;2024-03-02T03:04:49;12.20;;;11.00;;
10637;SDS011;47007;49.252;8.904;2024-03-02T03:05:31;12.05;;;10.73;;
10637;SDS011;47007;49.252;8.904;2024-03-02T03:06:12;13.38;;;11.90;;
10637;SDS011;47007;49.252;8.904;2024-03-02T03:06:54;11.70;;;10.55;;
10637;SDS011;47007;49.252;8.904;2024-03-02T03:07:36;11.50;;;10.40;;
10637;SDS011;47007;49.252;8.904;2024-03-02T03:08:19;11.43;;;10.23;;
10637;SDS011;47007;49.252;8.904;2024-03-02T03:09:00;11.05;;;9.95;;
10637;SDS011;47007;49.252;8.904;2024-03-02T03:09:42;11.45;;;10.35;;
10637;SDS011;47007;49.252;8.904;2024-03-02T03:10:24;12.45;;;10.77;;
10637;SDS011;47007;49.252;8.904;2024-03-02T03:11:07;12.57;;;10.98;;
10637;SDS011;47007;49.252;8.904;2024-03-02T03:11:49;12.13;;;10.88;;
10637;SDS011;47007;49.252;8.904;2024-03-02T03:12:31;11.57;;;10.45;;
10637;SDS011;47007;49.252;8.904;2024-03-02T03:13:14;11.30;;;10.10;;
10637;SDS011;47007;49.252;8.904;2024-03-02T03:13:55;10.63;;;9.53;;
10637;SDS011;47007;49.252;8.904;2024-03-02T03:14:37;10.65;;;9.65;;
10637;SDS011;47007;49.252;8.904;2024-03-02T03:15:21;10.70;;;9.55;;
10637;SDS011;47007;49.252;8.904;2024-03-02T03:16:03;9.57;;;8.57;;
10637;SDS011;47007;49.252;8.904;2024-03-02T03:16:46;11.05;;;9.95;;
10637;SDS011;47007;49.252;8.904;2024-03-02T03:17:30;10.75;;;9.65;;
10637;SDS011;47007;49.252;8.904;2024-03-02T03:18:11;12.10;;;10.88;;
10637;SDS011;47007;49.252;8.904;2024-03-02T03:18:53;11.35;;;10.02;;
10637;SDS011;47007;49.252;8.904;2024-03-02T03:19:35;10.23;;;9.18;;
10637;SDS011;47007;49.252;8.904;2024-03-02T03:20:17;10.57;;;9.57;;
10637;SDS011;47007;49.252;8.904;2024-03-02T03:20:58;10.73;;;9.73;;
10637;SDS011;47007;49.252;8.904;2024-03-02T03:21:40;10.32;;;9.32;;
10637;SDS011;47007;49.252;8.904;2024-03-02T03:22:22;10.63;;;9.32;;
10637;SDS011;47007;49.252;8.904;2024-03-02T03:23:04;9.95;;;8.95;;
10637;SDS011;47007;49.252;8.904;2024-03-02T03:23:45;10.65;;;9.55;;
10637;SDS011;47007;49.252;8.904;2024-03-02T03:24:27;10.80;;;9.70;;
10637;SDS011;47007;49.252;8.904;2024-03-02T03:25:09;11.32;;;10.13;;
10637;SDS011;47007;49.252;8.904;2024-03-02T03:25:50;11.68;;;10.48;;
10637;SDS011;47007;49.252;8.904;2024-03-02T03:26:32;12.13;;;10.93;;
10637;SDS011;47007;49.252;8.904;2024-03-02T03:27:18;11.75;;;10.55;;
10637;SDS011;47007;49.252;8.904;2024-03-02T03:28:01;11.32;;;10.15;;
10637;SDS011;47007;49.252;8.904;2024-03-02T03:28:43;11.40;;;10.20;;
10637;SDS011;47007;49.252;8.904;2024-03-02T03:29:25;12.07;;;10.60;;
10637;SDS011;47007;49.252;8.904;2024-03-02T03:30:07;10.30;;;9.30;;
10637;SDS011;47007;49.252;8.904;2024-03-02T03:30:49;11.13;;;9.63;;
10637;SDS011;47007;49.252;8.904;2024-03-02T03:31:30;10.43;;;9.35;;
10637;SDS011;47007;49.252;8.904;2024-03-02T03:32:12;11.88;;;10.68;;
10637;SDS011;47007;49.252;8.904;2024-03-02T03:32:54;11.75;;;10.55;;
10637;SDS011;47007;49.252;8.904;2024-03-02T03:33:36;11.35;;;10.15;;
10637;SDS011;47007;49.252;8.904;2024-03-02T03:34:18;11.25;;;10.10;;
10637;SDS011;47007;49.252;8.904;2024-03-02T03:34:59;11.15;;;10.05;;
10637;SDS011;47007;49.252;8.904;2024-03-02T03:35:41;12.07;;;10.77;;
10637;SDS011;47007;49.252;8.904;2024-03-02T03:36:23;11.48;;;10.38;;
10637;SDS011;47007;49.252;8.904;2024-03-02T03:37:05;11.15;;;9.88;;
10637;SDS011;47007;49.252;8.904;2024-03-02T03:37:46;11.75;;;10.48;;
10637;SDS011;47007;49.252;8.904;2024-03-02T03:38:28;11.45;;;10.25;;
10637;SDS011;47007;49.252;8.904;2024-03-02T03:39:11;10.38;;;9.27;;
10637;SDS011;47007;49.252;8.904;2024-03-02T03:39:53;11.55;;;9.73;;
10637;SDS011;47007;49.252;8.904;2024-03-02T03:40:34;11.27;;;10.15;;
10637;SDS011;47007;49.252;8.904;2024-03-02T03:41:16;11.15;;;10.05;;
10637;SDS011;47007;49.252;8.904;2024-03-02T03:41:58;11.23;;;10.13;;
10637;SDS011;47007;49.252;8.904;2024-03-02T03:42:40;10.77;;;9.75;;
10637;SDS011;47007;49.252;8.904;2024-03-02T03:43:22;11.07;;;9.77;;
10637;SDS011;47007;49.252;8.904;2024-03-02T03:44:03;10.80;;;9.73;;
10637;SDS011;47007;49.252;8.904;2024-03-02T03:44:45;11.77;;;10.15;;
10637;SDS011;47007;49.252;8.904;2024-03-02T03:45:27;11.55;;;10.25;;
10637;SDS011;47007;49.252;8.904;2024-03-02T03:46:09;10.95;;;9.85;;
10637;SDS011;47007;49.252;8.904;2024-03-02T03:46:50;11.27;;;10.18;;
10637;SDS011;47007;49.252;8.904;2024-03-02T03:47:32;11.18;;;10.10;;
10637;SDS011;47007;49.252;8.904;2024-03-02T03:48:14;10.20;;;9.20;;
10637;SDS011;47007;49.252;8.904;2024-03-02T03:48:56;10.25;;;9.25;;
10637;SDS011;47007;49.252;8.904;2024-03-02T03:49:38;10.45;;;9.40;;
10637;SDS011;47007;49.252;8.904;2024-03-02T03:50:20;10.10;;;9.07;;
10637;SDS011;47007;49.252;8.904;2024-03-02T03:51:02;11.00;;;9.98;;
10637;SDS011;47007;49.252;8.904;2024-03-02T03:51:43;11.80;;;10.38;;
10637;SDS011;47007;49.252;8.904;2024-03-02T03:52:25;10.82;;;9.65;;
10637;SDS011;47007;49.252;8.904;2024-03-02T03:53:07;11.88;;;10.68;;
10637;SDS011;47007;49.252;8.904;2024-03-02T03:53:49;11.48;;;10.35;;
10637;SDS011;47007;49.252;8.904;2024-03-02T03:54:30;12.07;;;10.77;;
10637;SDS011;47007;49.252;8.904;2024-03-02T03:55:12;12.30;;;10.40;;
10637;SDS011;47007;49.252;8.904;2024-03-02T03:55:54;11.88;;;10.73;;
10637;SDS011;47007;49.252;8.904;2024-03-02T03:56:36;12.70;;;11.43;;
10637;SDS011;47007;49.252;8.904;2024-03-02T03:57:17;12.13;;;10.98;;
10637;SDS011;47007;49.252;8.904;2024-03-02T03:57:59;12.18;;;10.98;;
10637;SDS011;47007;49.252;8.904;2024-03-02T03:58:41;10.95;;;9.82;;
10637;SDS011;47007;49.252;8.904;2024-03-02T03:59:23;11.60;;;10.40;;
10637;SDS011;47007;49.252;8.904;2024-03-02T04:00:05;10.48;;;9.38;;
10637;SDS011;47007;49.252;8.904;2024-03-02T04:00:54;10.10;;;9.15;;
10637;SDS011;47007;49.252;8.904;2024-03-02T04:01:36;10.57;;;9.48;;
10637;SDS011;47007;49.252;8.904;2024-03-02T04:02:19;11.55;;;10.35;;
10637;SDS011;47007;49.252;8.904;2024-03-02T04:03:01;11.30;;;10.20;;
10637;SDS011;47007;49.252;8.904;2024-03-02T04:03:42;11.73;;;10.38;;
10637;SDS011;47007;49.252;8.904;2024-03-02T04:04:24;12.40;;;10.25;;
10637;SDS011;47007;49.252;8.904;2024-03-02T04:05:06;10.85;;;9.77;;
10637;SDS011;47007;49.252;8.904;2024-03-02T04:05:52;11.52;;;10.32;;
10637;SDS011;47007;49.252;8.904;2024-03-02T04:06:33;12.23;;;11.02;;
10637;SDS011;47007;49.252;8.904;2024-03-02T04:07:15;13.38;;;11.40;;
10637;SDS011;47007;49.252;8.904;2024-03-02T04:07:57;12.18;;;10.98;;
10637;SDS011;47007;49.252;8.904;2024-03-02T04:08:38;13.70;;;12.32;;
10637;SDS011;47007;49.252;8.904;2024-03-02T04:09:20;13.35;;;11.32;;
10637;SDS011;47007;49.252;8.904;2024-03-02T04:10:02;13.05;;;11.63;;
10637;SDS011;47007;49.252;8.904;2024-03-02T04:10:45;13.93;;;12.52;;
10637;SDS011;47007;49.252;8.904;2024-03-02T04:11:26;14.80;;;12.65;;
10637;SDS011;47007;49.252;8.904;2024-03-02T04:12:08;12.77;;;11.45;;
10637;SDS011;47007;49.252;8.904;2024-03-02T04:12:50;12.77;;;11.40;;